createdAt,value
2023-02-18T00:00:02.925Z,78.00
2023-02-18T00:01:02.571Z,78.00
2023-02-18T00:02:03.039Z,78.00
2023-02-18T00:03:02.693Z,78.00
2023-02-18T00:04:02.517Z,78.00
2023-02-18T00:05:02.406Z,78.00
2023-02-18T00:06:02.918Z,78.00
2023-02-18T00:07:02.257Z,78.00
2023-02-18T00:08:02.218Z,78.00
2023-02-18T00:09:02.187Z,78.00
2023-02-18T00:10:01.973Z,78.00
2023-02-18T00:11:01.801Z,79.00
2023-02-18T00:12:02.330Z,79.00
2023-02-18T00:13:02.840Z,79.00
2023-02-18T00:14:02.417Z,79.00
2023-02-18T00:15:02.977Z,79.00
2023-02-18T00:16:02.584Z,79.00
2023-02-18T00:17:02.507Z,79.00
2023-02-18T00:18:02.972Z,79.00
2023-02-18T00:19:02.706Z,79.00
2023-02-18T00:20:03.085Z,79.00
2023-02-18T00:21:02.722Z,79.00
2023-02-18T00:22:02.936Z,79.00
2023-02-18T00:23:02.836Z,79.00
2023-02-18T00:24:02.711Z,79.00
2023-02-18T00:25:02.619Z,79.00
2023-02-18T00:26:03.036Z,79.00
2023-02-18T00:27:02.002Z,79.00
2023-02-18T00:28:02.401Z,79.00
2023-02-18T00:29:02.035Z,79.00
2023-02-18T00:30:02.517Z,79.00
2023-02-18T00:31:02.299Z,79.00
2023-02-18T00:32:02.301Z,79.00
2023-02-18T00:33:02.772Z,79.00
2023-02-18T00:34:02.168Z,79.00
2023-02-18T00:35:02.762Z,78.00
2023-02-18T00:36:02.399Z,78.00
2023-02-18T00:37:02.183Z,79.00
2023-02-18T00:38:02.811Z,79.00
2023-02-18T00:39:02.460Z,79.00
2023-02-18T00:40:02.350Z,79.00
2023-02-18T00:41:02.156Z,79.00
2023-02-18T00:42:02.711Z,79.00
2023-02-18T00:43:03.211Z,79.00
2023-02-18T00:44:02.774Z,79.00
2023-02-18T00:45:03.203Z,79.00
2023-02-18T00:46:02.843Z,79.00
2023-02-18T00:47:02.323Z,79.00
2023-02-18T00:48:02.889Z,79.00
2023-02-18T00:49:02.489Z,78.00
2023-02-18T00:50:02.605Z,79.00
2023-02-18T00:51:02.361Z,79.00
2023-02-18T00:52:01.981Z,79.00
2023-02-18T00:53:01.836Z,79.00
2023-02-18T00:54:02.319Z,79.00
2023-02-18T00:55:02.144Z,79.00
2023-02-18T00:56:01.995Z,79.00
2023-02-18T00:57:02.558Z,79.00
2023-02-18T00:58:02.449Z,79.00
2023-02-18T00:59:02.868Z,79.00
2023-02-18T01:00:02.605Z,79.00
2023-02-18T01:01:02.573Z,79.00
2023-02-18T01:02:02.965Z,79.00
2023-02-18T01:03:03.358Z,79.00
2023-02-18T01:04:03.096Z,79.00
2023-02-18T01:05:02.968Z,79.00
2023-02-18T01:06:03.401Z,79.00
2023-02-18T01:07:03.107Z,79.00
2023-02-18T01:08:03.480Z,79.00
2023-02-18T01:09:03.204Z,79.00
2023-02-18T01:10:03.047Z,79.00
2023-02-18T01:11:03.531Z,79.00
2023-02-18T01:12:03.233Z,79.00
2023-02-18T01:13:03.738Z,79.00
2023-02-18T01:14:03.578Z,79.00
2023-02-18T01:15:03.374Z,79.00
2023-02-18T01:16:03.734Z,79.00
2023-02-18T01:17:03.616Z,79.00
2023-02-18T01:18:03.397Z,78.00
2023-02-18T01:19:03.885Z,78.00
2023-02-18T01:20:03.678Z,78.00
2023-02-18T01:21:03.513Z,79.00
2023-02-18T01:22:02.963Z,79.00
2023-02-18T01:23:02.798Z,79.00
2023-02-18T01:24:03.336Z,79.00
2023-02-18T01:25:03.096Z,78.00
2023-02-18T01:26:02.974Z,78.00
2023-02-18T01:27:03.332Z,78.00
2023-02-18T01:28:03.541Z,78.00
2023-02-18T01:29:03.360Z,78.00
2023-02-18T01:30:03.233Z,78.00
2023-02-18T01:31:03.879Z,78.00
2023-02-18T01:32:03.506Z,78.00
2023-02-18T01:33:03.393Z,78.00
2023-02-18T01:34:03.236Z,78.00
2023-02-18T01:35:03.747Z,78.00
2023-02-18T01:36:03.612Z,78.00
2023-02-18T01:37:03.485Z,78.00
2023-02-18T01:38:02.935Z,78.00
2023-02-18T01:39:03.391Z,78.00
2023-02-18T01:40:03.283Z,78.00
2023-02-18T01:41:03.003Z,78.00
2023-02-18T01:42:03.564Z,78.00
2023-02-18T01:43:03.289Z,79.00
2023-02-18T01:44:03.896Z,79.00
2023-02-18T01:45:03.426Z,79.00
2023-02-18T01:46:03.842Z,79.00
2023-02-18T01:47:03.167Z,80.00
2023-02-18T01:48:03.116Z,80.00
2023-02-18T01:49:02.883Z,80.00
2023-02-18T01:50:03.424Z,80.00
2023-02-18T01:51:03.033Z,80.00
2023-02-18T01:52:03.575Z,80.00
2023-02-18T01:53:03.456Z,80.00
2023-02-18T01:54:03.796Z,80.00
2023-02-18T01:55:03.405Z,80.00
2023-02-18T01:56:03.828Z,80.00
2023-02-18T01:57:03.137Z,81.00
2023-02-18T01:58:02.868Z,81.00
2023-02-18T01:59:03.283Z,81.00
2023-02-18T02:00:03.023Z,81.00
2023-02-18T02:01:02.792Z,81.00
2023-02-18T02:02:02.445Z,81.00
2023-02-18T02:03:02.041Z,81.00
2023-02-18T02:04:01.923Z,81.00
2023-02-18T02:05:02.309Z,81.00
2023-02-18T02:06:02.193Z,80.00
2023-02-18T02:07:02.881Z,80.00
2023-02-18T02:08:02.534Z,80.00
2023-02-18T02:09:02.968Z,80.00
2023-02-18T02:10:02.532Z,81.00
2023-02-18T02:11:02.941Z,81.00
2023-02-18T02:12:03.095Z,81.00
2023-02-18T02:13:02.983Z,81.00
2023-02-18T02:14:02.790Z,81.00
2023-02-18T02:15:03.350Z,81.00
2023-02-18T02:16:02.983Z,81.00
2023-02-18T02:17:02.530Z,81.00
2023-02-18T02:18:02.235Z,82.00
2023-02-18T02:19:02.321Z,82.00
2023-02-18T02:20:02.435Z,82.00
2023-02-18T02:21:02.256Z,82.00
2023-02-18T02:22:02.749Z,82.00
2023-02-18T02:23:02.578Z,82.00
2023-02-18T02:24:02.450Z,82.00
2023-02-18T02:25:02.272Z,82.00
2023-02-18T02:26:02.582Z,82.00
2023-02-18T02:27:03.017Z,82.00
2023-02-18T02:28:02.799Z,83.00
2023-02-18T02:29:02.682Z,83.00
2023-02-18T02:30:02.873Z,83.00
2023-02-18T02:31:02.906Z,83.00
2023-02-18T02:32:02.515Z,83.00
2023-02-18T02:33:02.286Z,83.00
2023-02-18T02:34:02.033Z,83.00
2023-02-18T02:35:02.541Z,83.00
2023-02-18T02:36:02.069Z,83.00
2023-02-18T02:37:02.668Z,83.00
2023-02-18T02:38:02.341Z,84.00
2023-02-18T02:39:02.104Z,84.00
2023-02-18T02:40:02.660Z,85.00
2023-02-18T02:41:02.267Z,85.00
2023-02-18T02:42:02.683Z,84.00
2023-02-18T02:43:02.562Z,84.00
2023-02-18T02:44:02.273Z,84.00
2023-02-18T02:45:02.754Z,84.00
2023-02-18T02:46:02.332Z,84.00
2023-02-18T02:47:02.877Z,83.00
2023-02-18T02:48:02.790Z,83.00
2023-02-18T02:49:02.496Z,83.00
2023-02-18T02:50:02.991Z,83.00
2023-02-18T02:51:02.516Z,82.00
2023-02-18T02:52:02.579Z,82.00
2023-02-18T02:53:03.076Z,82.00
2023-02-18T02:54:03.009Z,82.00
2023-02-18T02:55:02.543Z,82.00
2023-02-18T02:56:03.013Z,82.00
2023-02-18T02:57:03.348Z,82.00
2023-02-18T02:58:03.335Z,82.00
2023-02-18T02:59:02.824Z,82.00
2023-02-18T03:00:03.307Z,82.00
2023-02-18T03:01:03.199Z,82.00
2023-02-18T03:02:03.608Z,83.00
2023-02-18T03:03:03.738Z,83.00
2023-02-18T03:04:03.399Z,83.00
2023-02-18T03:05:03.270Z,83.00
2023-02-18T03:06:03.160Z,83.00
2023-02-18T03:07:02.720Z,83.00
2023-02-18T03:08:02.438Z,82.00
2023-02-18T03:09:02.132Z,83.00
2023-02-18T03:10:02.644Z,83.00
2023-02-18T03:11:02.696Z,83.00
2023-02-18T03:12:02.919Z,83.00
2023-02-18T03:13:02.527Z,83.00
2023-02-18T03:14:02.932Z,83.00
2023-02-18T03:15:02.436Z,82.00
2023-02-18T03:16:03.119Z,82.00
2023-02-18T03:17:03.340Z,82.00
2023-02-18T03:18:02.886Z,82.00
2023-02-18T03:19:03.375Z,82.00
2023-02-18T03:20:03.331Z,82.00
2023-02-18T03:21:02.935Z,82.00
2023-02-18T03:22:03.325Z,82.00
2023-02-18T03:23:02.854Z,82.00
2023-02-18T03:24:03.427Z,82.00
2023-02-18T03:25:02.891Z,81.00
2023-02-18T03:26:03.399Z,82.00
2023-02-18T03:27:03.708Z,82.00
2023-02-18T03:28:03.218Z,82.00
2023-02-18T03:29:03.728Z,82.00
2023-02-18T03:30:03.248Z,82.00
2023-02-18T03:31:03.051Z,82.00
2023-02-18T03:32:02.781Z,82.00
2023-02-18T03:33:03.159Z,82.00
2023-02-18T03:34:03.009Z,82.00
2023-02-18T03:35:02.825Z,82.00
2023-02-18T03:36:02.718Z,82.00
2023-02-18T03:37:02.328Z,82.00
2023-02-18T03:38:02.862Z,82.00
2023-02-18T03:39:02.389Z,82.00
2023-02-18T03:40:02.248Z,82.00
2023-02-18T03:41:02.753Z,82.00
2023-02-18T03:42:02.615Z,82.00
2023-02-18T03:43:02.942Z,82.00
2023-02-18T03:44:02.824Z,82.00
2023-02-18T03:45:02.585Z,82.00
2023-02-18T03:46:03.162Z,82.00
2023-02-18T03:47:03.025Z,82.00
2023-02-18T03:48:02.916Z,82.00
2023-02-18T03:49:02.889Z,82.00
2023-02-18T03:50:03.352Z,82.00
2023-02-18T03:51:02.934Z,82.00
2023-02-18T03:52:02.501Z,81.00
2023-02-18T03:53:03.045Z,81.00
2023-02-18T03:54:02.573Z,81.00
2023-02-18T03:55:02.449Z,80.00
2023-02-18T03:56:02.994Z,80.00
2023-02-18T03:57:02.480Z,80.00
2023-02-18T03:58:03.049Z,80.00
2023-02-18T03:59:02.588Z,80.00
2023-02-18T04:00:02.474Z,80.00
2023-02-18T04:01:02.752Z,79.00
2023-02-18T04:02:02.575Z,80.00
2023-02-18T04:03:03.062Z,79.00
2023-02-18T04:04:02.570Z,79.00
2023-02-18T04:05:02.992Z,79.00
2023-02-18T04:06:02.866Z,79.00
2023-02-18T04:07:02.672Z,79.00
2023-02-18T04:08:03.133Z,79.00
2023-02-18T04:09:02.859Z,78.00
2023-02-18T04:10:03.212Z,78.00
2023-02-18T04:11:02.813Z,78.00
2023-02-18T04:12:03.296Z,79.00
2023-02-18T04:13:03.761Z,78.00
2023-02-18T04:14:03.298Z,79.00
2023-02-18T04:15:03.175Z,79.00
2023-02-18T04:16:03.726Z,79.00
2023-02-18T04:17:03.210Z,78.00
2023-02-18T04:18:03.737Z,79.00
2023-02-18T04:19:03.774Z,79.00
2023-02-18T04:20:03.597Z,79.00
2023-02-18T04:21:03.471Z,79.00
2023-02-18T04:22:03.330Z,78.00
2023-02-18T04:23:03.221Z,78.00
2023-02-18T04:24:03.706Z,78.00
2023-02-18T04:25:03.611Z,78.00
2023-02-18T04:26:03.304Z,78.00
2023-02-18T04:27:02.839Z,78.00
2023-02-18T04:28:03.303Z,78.00
2023-02-18T04:29:02.925Z,78.00
2023-02-18T04:30:03.415Z,78.00
2023-02-18T04:31:03.109Z,78.00
2023-02-18T04:32:03.014Z,78.00
2023-02-18T04:33:02.822Z,78.00
2023-02-18T04:34:03.129Z,78.00
2023-02-18T04:35:03.007Z,78.00
2023-02-18T04:36:02.862Z,78.00
2023-02-18T04:37:03.262Z,78.00
2023-02-18T04:38:03.800Z,78.00
2023-02-18T04:39:03.431Z,78.00
2023-02-18T04:40:03.845Z,78.00
2023-02-18T04:41:03.439Z,78.00
2023-02-18T04:42:03.015Z,78.00
2023-02-18T04:43:02.853Z,78.00
2023-02-18T04:44:03.315Z,78.00
2023-02-18T04:45:02.999Z,78.00
2023-02-18T04:46:03.547Z,79.00
2023-02-18T04:47:03.200Z,79.00
2023-02-18T04:48:02.985Z,79.00
2023-02-18T04:49:03.478Z,80.00
2023-02-18T04:50:03.320Z,80.00
2023-02-18T04:51:03.041Z,79.00
2023-02-18T04:52:03.538Z,80.00
2023-02-18T04:53:03.402Z,80.00
2023-02-18T04:54:03.457Z,80.00
2023-02-18T04:55:03.855Z,80.00
2023-02-18T04:56:03.457Z,80.00
2023-02-18T04:57:02.927Z,79.00
2023-02-18T04:58:03.326Z,80.00
2023-02-18T04:59:02.957Z,79.00
2023-02-18T05:00:02.777Z,79.00
2023-02-18T05:01:02.868Z,79.00
2023-02-18T05:02:02.464Z,79.00
2023-02-18T05:03:02.319Z,79.00
2023-02-18T05:04:02.242Z,79.00
2023-02-18T05:05:02.762Z,79.00
2023-02-18T05:06:02.335Z,79.00
2023-02-18T05:07:01.987Z,79.00
2023-02-18T05:08:02.096Z,79.00
2023-02-18T05:09:01.740Z,79.00
2023-02-18T05:10:01.614Z,79.00
2023-02-18T05:11:02.183Z,79.00
2023-02-18T05:12:02.418Z,79.00
2023-02-18T05:13:02.291Z,79.00
2023-02-18T05:14:02.197Z,79.00
2023-02-18T05:15:02.082Z,79.00
2023-02-18T05:16:02.727Z,79.00
2023-02-18T05:17:02.130Z,79.00
2023-02-18T05:18:02.052Z,79.00
2023-02-18T05:19:01.840Z,79.00
2023-02-18T05:20:01.730Z,79.00
2023-02-18T05:21:01.624Z,79.00
2023-02-18T05:22:02.109Z,79.00
2023-02-18T05:23:02.050Z,79.00
2023-02-18T05:24:01.953Z,79.00
2023-02-18T05:25:01.860Z,79.00
2023-02-18T05:26:02.293Z,79.00
2023-02-18T05:27:02.592Z,79.00
2023-02-18T05:28:02.475Z,80.00
2023-02-18T05:29:02.400Z,79.00
2023-02-18T05:30:02.300Z,80.00
2023-02-18T05:31:02.346Z,80.00
2023-02-18T05:32:02.920Z,80.00
2023-02-18T05:33:02.840Z,80.00
2023-02-18T05:34:02.730Z,80.00
2023-02-18T05:35:02.574Z,80.00
2023-02-18T05:36:02.439Z,80.00
2023-02-18T05:37:02.607Z,80.00
2023-02-18T05:38:02.451Z,80.00
2023-02-18T05:39:02.231Z,81.00
2023-02-18T05:40:02.731Z,80.00
2023-02-18T05:41:02.352Z,80.00
2023-02-18T05:42:02.763Z,80.00
2023-02-18T05:43:02.463Z,80.00
2023-02-18T05:44:02.331Z,80.00
2023-02-18T05:45:02.748Z,79.00
2023-02-18T05:46:02.560Z,79.00
2023-02-18T05:47:02.256Z,79.00
2023-02-18T05:48:01.819Z,79.00
2023-02-18T05:49:01.684Z,79.00
2023-02-18T05:50:02.115Z,80.00
2023-02-18T05:51:01.986Z,80.00
2023-02-18T05:52:02.484Z,79.00
2023-02-18T05:53:01.979Z,79.00
2023-02-18T05:54:02.459Z,79.00
2023-02-18T05:55:02.369Z,79.00
2023-02-18T05:56:02.267Z,79.00
2023-02-18T05:57:02.699Z,79.00
2023-02-18T05:58:02.301Z,79.00
2023-02-18T05:59:02.717Z,79.00
2023-02-18T06:00:02.361Z,79.00
2023-02-18T06:01:02.596Z,79.00
2023-02-18T06:02:03.067Z,79.00
2023-02-18T06:03:02.993Z,78.00
2023-02-18T06:04:02.698Z,78.00
2023-02-18T06:05:02.589Z,78.00
2023-02-18T06:06:03.163Z,78.00
2023-02-18T06:07:02.378Z,78.00
2023-02-18T06:08:02.300Z,78.00
2023-02-18T06:09:02.088Z,78.00
2023-02-18T06:10:02.082Z,78.00
2023-02-18T06:11:02.448Z,78.00
2023-02-18T06:12:02.971Z,78.00
2023-02-18T06:13:02.586Z,78.00
2023-02-18T06:14:02.475Z,78.00
2023-02-18T06:15:02.906Z,78.00
2023-02-18T06:16:02.841Z,78.00
2023-02-18T06:17:01.815Z,78.00
2023-02-18T06:18:02.219Z,78.00
2023-02-18T06:19:02.057Z,78.00
2023-02-18T06:20:01.992Z,78.00
2023-02-18T06:21:01.865Z,78.00
2023-02-18T06:22:02.981Z,78.00
2023-02-18T06:23:02.556Z,77.00
2023-02-18T06:24:02.449Z,77.00
2023-02-18T06:25:02.976Z,77.00
2023-02-18T06:26:02.564Z,77.00
2023-02-18T06:27:02.495Z,77.00
2023-02-18T06:28:02.431Z,77.00
2023-02-18T06:29:02.952Z,77.00
2023-02-18T06:30:02.954Z,77.00
2023-02-18T06:31:03.215Z,77.00
2023-02-18T06:32:02.073Z,77.00
2023-02-18T06:33:01.896Z,77.00
2023-02-18T06:34:02.335Z,77.00
2023-02-18T06:35:02.189Z,77.00
2023-02-18T06:36:01.967Z,77.00
2023-02-18T06:37:02.483Z,77.00
2023-02-18T06:38:02.437Z,77.00
2023-02-18T06:39:03.075Z,77.00
2023-02-18T06:40:02.750Z,77.00
2023-02-18T06:41:02.620Z,77.00
2023-02-18T06:42:02.016Z,77.00
2023-02-18T06:43:01.943Z,77.00
2023-02-18T06:44:01.868Z,77.00
2023-02-18T06:45:02.440Z,77.00
2023-02-18T06:46:02.099Z,77.00
2023-02-18T06:47:02.059Z,77.00
2023-02-18T06:48:02.010Z,76.00
2023-02-18T06:49:01.969Z,76.00
2023-02-18T06:50:02.477Z,76.00
2023-02-18T06:51:02.044Z,76.00
2023-02-18T06:52:02.718Z,76.00
2023-02-18T06:53:02.576Z,76.00
2023-02-18T06:54:03.060Z,76.00
2023-02-18T06:55:02.856Z,76.00
2023-02-18T06:56:02.710Z,76.00
2023-02-18T06:57:02.470Z,76.00
2023-02-18T06:58:02.318Z,76.00
2023-02-18T06:59:02.251Z,76.00
2023-02-18T07:00:02.836Z,76.00
2023-02-18T07:01:02.518Z,76.00
2023-02-18T07:02:02.446Z,76.00
2023-02-18T07:03:02.350Z,76.00
2023-02-18T07:04:02.405Z,76.00
2023-02-18T07:05:02.833Z,76.00
2023-02-18T07:06:02.458Z,76.00
2023-02-18T07:07:02.046Z,76.00
2023-02-18T07:08:01.938Z,76.00
2023-02-18T07:09:01.954Z,76.00
2023-02-18T07:10:01.953Z,75.00
2023-02-18T07:11:01.874Z,75.00
2023-02-18T07:12:02.522Z,75.00
2023-02-18T07:13:02.320Z,75.00
2023-02-18T07:14:02.877Z,76.00
2023-02-18T07:15:02.504Z,75.00
2023-02-18T07:16:02.500Z,75.00
2023-02-18T07:17:02.233Z,75.00
2023-02-18T07:18:02.176Z,75.00
2023-02-18T07:19:02.146Z,75.00
2023-02-18T07:20:02.088Z,75.00
2023-02-18T07:21:01.916Z,75.00
2023-02-18T07:22:02.505Z,75.00
2023-02-18T07:23:02.576Z,75.00
2023-02-18T07:24:02.573Z,75.00
2023-02-18T07:25:02.495Z,75.00
2023-02-18T07:26:02.347Z,75.00
2023-02-18T07:27:02.110Z,75.00
2023-02-18T07:28:02.119Z,75.00
2023-02-18T07:29:02.034Z,75.00
2023-02-18T07:30:01.996Z,75.00
2023-02-18T07:31:01.978Z,75.00
2023-02-18T07:32:02.712Z,75.00
2023-02-18T07:33:04.061Z,74.00
2023-02-18T07:34:02.531Z,74.00
2023-02-18T07:35:02.440Z,74.00
2023-02-18T07:36:02.294Z,74.00
2023-02-18T07:37:02.912Z,74.00
2023-02-18T07:38:02.937Z,74.00
2023-02-18T07:39:02.878Z,74.00
2023-02-18T07:40:02.881Z,74.00
2023-02-18T07:41:02.868Z,74.00
2023-02-18T07:42:02.527Z,74.00
2023-02-18T07:43:02.544Z,74.00
2023-02-18T07:44:02.449Z,74.00
2023-02-18T07:45:02.355Z,74.00
2023-02-18T07:46:02.338Z,75.00
2023-02-18T07:47:02.990Z,74.00
2023-02-18T07:48:02.923Z,74.00
2023-02-18T07:49:02.542Z,74.00
2023-02-18T07:50:03.191Z,74.00
2023-02-18T07:51:02.899Z,74.00
2023-02-18T07:52:04.420Z,74.00
2023-02-18T07:53:02.586Z,74.00
2023-02-18T07:54:02.537Z,74.00
2023-02-18T07:55:02.367Z,74.00
2023-02-18T07:56:02.741Z,74.00
2023-02-18T07:57:02.206Z,74.00
2023-02-18T07:58:02.188Z,74.00
2023-02-18T07:59:02.171Z,74.00
2023-02-18T08:00:02.118Z,74.00
2023-02-18T08:01:02.242Z,74.00
2023-02-18T08:02:02.893Z,74.00
2023-02-18T08:03:02.600Z,74.00
2023-02-18T08:04:02.670Z,74.00
2023-02-18T08:05:02.463Z,74.00
2023-02-18T08:06:02.461Z,74.00
2023-02-18T08:07:03.136Z,74.00
2023-02-18T08:08:02.976Z,74.00
2023-02-18T08:09:02.769Z,74.00
2023-02-18T08:10:03.009Z,74.00
2023-02-18T08:11:13.412Z,74.00
2023-02-18T08:12:02.757Z,74.00
2023-02-18T08:13:02.382Z,74.00
2023-02-18T08:14:02.352Z,74.00
2023-02-18T08:15:02.252Z,74.00
2023-02-18T08:16:02.192Z,74.00
2023-02-18T08:17:02.804Z,74.00
2023-02-18T08:18:02.540Z,74.00
2023-02-18T08:19:02.520Z,74.00
2023-02-18T08:20:02.416Z,74.00
2023-02-18T08:21:02.260Z,73.00
2023-02-18T08:22:02.954Z,73.00
2023-02-18T08:23:02.582Z,73.00
2023-02-18T08:24:02.509Z,73.00
2023-02-18T08:25:02.526Z,73.00
2023-02-18T08:26:02.386Z,72.00
2023-02-18T08:27:03.048Z,72.00
2023-02-18T08:28:02.738Z,73.00
2023-02-18T08:29:02.704Z,73.00
2023-02-18T08:30:02.661Z,72.00
2023-02-18T08:31:02.747Z,72.00
2023-02-18T08:32:03.282Z,72.00
2023-02-18T08:33:02.881Z,72.00
2023-02-18T08:34:02.809Z,72.00
2023-02-18T08:35:02.825Z,72.00
2023-02-18T08:36:02.762Z,72.00
2023-02-18T08:37:03.445Z,72.00
2023-02-18T08:38:03.197Z,72.00
2023-02-18T08:39:03.153Z,73.00
2023-02-18T08:40:03.137Z,72.00
2023-02-18T08:41:03.022Z,72.00
2023-02-18T08:42:02.758Z,72.00
2023-02-18T08:43:02.464Z,73.00
2023-02-18T08:44:02.436Z,73.00
2023-02-18T08:45:02.388Z,73.00
2023-02-18T08:46:02.395Z,74.00
2023-02-18T08:47:03.022Z,74.00
2023-02-18T08:48:17.565Z,75.00
2023-02-18T08:49:02.740Z,76.00
2023-02-18T08:50:02.661Z,76.00
2023-02-18T08:51:02.492Z,77.00
2023-02-18T08:52:03.178Z,77.00
2023-02-18T08:53:02.879Z,77.00
2023-02-18T08:54:02.676Z,77.00
2023-02-18T08:55:02.801Z,77.00
2023-02-18T08:56:02.692Z,77.00
2023-02-18T08:57:02.911Z,77.00
2023-02-18T08:58:03.057Z,77.00
2023-02-18T08:59:02.762Z,77.00
2023-02-18T09:00:03.391Z,77.00
2023-02-18T09:01:03.146Z,78.00
2023-02-18T09:02:03.687Z,78.00
2023-02-18T09:03:03.454Z,78.00
2023-02-18T09:04:03.353Z,79.00
2023-02-18T09:05:03.201Z,79.00
2023-02-18T09:06:03.141Z,79.00
2023-02-18T09:07:02.747Z,79.00
2023-02-18T09:08:02.883Z,79.00
2023-02-18T09:09:02.879Z,79.00
2023-02-18T09:10:02.787Z,80.00
2023-02-18T09:11:02.998Z,80.00
2023-02-18T09:12:03.017Z,80.00
2023-02-18T09:13:03.559Z,80.00
2023-02-18T09:14:03.304Z,81.00
2023-02-18T09:15:03.269Z,80.00
2023-02-18T09:16:03.586Z,80.00
2023-02-18T09:17:02.433Z,81.00
2023-02-18T09:18:03.012Z,81.00
2023-02-18T09:19:02.764Z,80.00
2023-02-18T09:20:02.791Z,80.00
2023-02-18T09:21:02.424Z,80.00
2023-02-18T09:22:02.981Z,80.00
2023-02-18T09:23:03.494Z,80.00
2023-02-18T09:24:03.217Z,80.00
2023-02-18T09:25:03.037Z,80.00
2023-02-18T09:26:03.046Z,80.00
2023-02-18T09:27:02.602Z,80.00
2023-02-18T09:28:03.169Z,80.00
2023-02-18T09:29:02.867Z,80.00
2023-02-18T09:30:02.706Z,79.00
2023-02-18T09:31:03.033Z,77.00
2023-02-18T09:32:03.065Z,78.00
2023-02-18T09:33:03.149Z,78.00
2023-02-18T09:34:03.122Z,78.00
2023-02-18T09:35:03.291Z,77.00
2023-02-18T09:36:03.254Z,77.00
2023-02-18T09:37:03.243Z,76.00
2023-02-18T09:38:03.722Z,76.00
2023-02-18T09:39:03.581Z,76.00
2023-02-18T09:40:03.813Z,76.00
2023-02-18T09:41:03.623Z,76.00
2023-02-18T09:42:03.278Z,75.00
2023-02-18T09:43:03.529Z,76.00
2023-02-18T09:44:03.382Z,76.00
2023-02-18T09:45:03.414Z,76.00
2023-02-18T09:46:03.340Z,75.00
2023-02-18T09:47:02.794Z,76.00
2023-02-18T09:48:03.170Z,76.00
2023-02-18T09:49:02.820Z,76.00
2023-02-18T09:50:02.738Z,75.00
2023-02-18T09:51:02.659Z,75.00
2023-02-18T09:52:03.303Z,75.00
2023-02-18T09:53:03.290Z,76.00
2023-02-18T09:54:03.694Z,76.00
2023-02-18T09:55:03.447Z,75.00
2023-02-18T09:56:03.727Z,75.00
2023-02-18T09:57:02.428Z,75.00
2023-02-18T09:58:02.229Z,75.00
2023-02-18T09:59:02.812Z,75.00
2023-02-18T10:00:02.305Z,75.00
2023-02-18T10:01:02.404Z,75.00
2023-02-18T10:02:03.164Z,75.00
2023-02-18T10:03:03.032Z,74.00
2023-02-18T10:04:02.969Z,74.00
2023-02-18T10:05:02.967Z,74.00
2023-02-18T10:06:03.313Z,74.00
2023-02-18T10:07:03.168Z,74.00
2023-02-18T10:08:03.241Z,74.00
2023-02-18T10:09:02.971Z,74.00
2023-02-18T10:10:03.580Z,74.00
2023-02-18T10:11:03.575Z,73.00
2023-02-18T10:12:02.506Z,73.00
2023-02-18T10:13:02.427Z,73.00
2023-02-18T10:14:02.802Z,73.00
2023-02-18T10:15:02.417Z,73.00
2023-02-18T10:16:02.261Z,73.00
2023-02-18T10:17:03.014Z,72.00
2023-02-18T10:18:03.174Z,72.00
2023-02-18T10:19:03.056Z,72.00
2023-02-18T10:20:04.715Z,72.00
2023-02-18T10:21:02.712Z,72.00
2023-02-18T10:22:02.991Z,71.00
2023-02-18T10:23:02.950Z,72.00
2023-02-18T10:24:03.173Z,72.00
2023-02-18T10:25:03.062Z,71.00
2023-02-18T10:26:02.986Z,71.00
2023-02-18T10:27:02.480Z,71.00
2023-02-18T10:28:02.474Z,71.00
2023-02-18T10:29:02.761Z,71.00
2023-02-18T10:30:02.535Z,71.00
2023-02-18T10:31:02.474Z,71.00
2023-02-18T10:32:02.889Z,71.00
2023-02-18T10:33:03.229Z,71.00
2023-02-18T10:34:03.100Z,71.00
2023-02-18T10:35:03.094Z,71.00
2023-02-18T10:36:03.152Z,71.00
2023-02-18T10:37:03.336Z,71.00
2023-02-18T10:38:03.318Z,71.00
2023-02-18T10:39:03.099Z,71.00
2023-02-18T10:40:03.407Z,71.00
2023-02-18T10:41:03.013Z,71.00
2023-02-18T10:42:02.613Z,71.00
2023-02-18T10:43:02.436Z,71.00
2023-02-18T10:44:02.585Z,71.00
2023-02-18T10:45:02.782Z,72.00
2023-02-18T10:46:02.336Z,73.00
2023-02-18T10:47:02.972Z,73.00
2023-02-18T10:48:02.819Z,74.00
2023-02-18T10:49:03.148Z,74.00
2023-02-18T10:50:02.649Z,74.00
2023-02-18T10:51:03.168Z,75.00
2023-02-18T10:52:03.422Z,75.00
2023-02-18T10:53:03.637Z,74.00
2023-02-18T10:54:03.520Z,75.00
2023-02-18T10:55:03.445Z,75.00
2023-02-18T10:56:03.330Z,74.00
2023-02-18T10:57:03.131Z,75.00
2023-02-18T10:58:02.814Z,75.00
2023-02-18T10:59:03.125Z,75.00
2023-02-18T11:00:02.790Z,76.00
2023-02-18T11:01:03.089Z,75.00
2023-02-18T11:02:02.802Z,76.00
2023-02-18T11:03:02.436Z,77.00
2023-02-18T11:04:02.348Z,76.00
2023-02-18T11:05:02.459Z,76.00
2023-02-18T11:06:02.496Z,76.00
2023-02-18T11:07:02.358Z,76.00
2023-02-18T11:08:01.919Z,76.00
2023-02-18T11:09:01.932Z,76.00
2023-02-18T11:10:01.903Z,76.00
2023-02-18T11:11:02.212Z,76.00
2023-02-18T11:12:08.429Z,76.00
2023-02-18T11:13:02.318Z,76.00
2023-02-18T11:14:02.113Z,76.00
2023-02-18T11:15:02.004Z,76.00
2023-02-18T11:16:02.711Z,77.00
2023-02-18T11:17:03.058Z,76.00
2023-02-18T11:18:02.904Z,76.00
2023-02-18T11:19:03.014Z,76.00
2023-02-18T11:20:02.863Z,76.00
2023-02-18T11:21:02.537Z,76.00
2023-02-18T11:22:02.211Z,76.00
2023-02-18T11:23:02.071Z,76.00
2023-02-18T11:24:02.218Z,77.00
2023-02-18T11:25:01.849Z,77.00
2023-02-18T11:26:02.195Z,78.00
2023-02-18T11:27:02.589Z,78.00
2023-02-18T11:28:02.188Z,79.00
2023-02-18T11:29:02.447Z,79.00
2023-02-18T11:30:02.679Z,79.00
2023-02-18T11:31:02.636Z,80.00
2023-02-18T11:32:02.920Z,79.00
2023-02-18T11:33:02.343Z,80.00
2023-02-18T11:34:02.300Z,81.00
2023-02-18T11:35:02.710Z,81.00
2023-02-18T11:36:02.535Z,82.00
2023-02-18T11:37:01.741Z,82.00
2023-02-18T11:38:02.447Z,82.00
2023-02-18T11:39:01.949Z,83.00
2023-02-18T11:40:02.157Z,83.00
2023-02-18T11:41:02.143Z,83.00
2023-02-18T11:42:01.963Z,83.00
2023-02-18T11:43:02.159Z,83.00
2023-02-18T11:44:01.987Z,84.00
2023-02-18T11:45:04.460Z,84.00
2023-02-18T11:46:02.577Z,84.00
2023-02-18T11:47:02.362Z,84.00
2023-02-18T11:48:02.932Z,84.00
2023-02-18T11:49:02.386Z,84.00
2023-02-18T11:50:02.399Z,85.00
2023-02-18T11:51:02.461Z,84.00
2023-02-18T11:52:02.971Z,85.00
2023-02-18T11:53:02.669Z,85.00
2023-02-18T11:54:02.786Z,85.00
2023-02-18T11:55:02.561Z,86.00
2023-02-18T11:56:02.309Z,85.00
2023-02-18T11:57:02.286Z,86.00
2023-02-18T11:58:02.813Z,86.00
2023-02-18T11:59:02.681Z,87.00
2023-02-18T12:00:02.854Z,87.00
2023-02-18T12:01:02.592Z,87.00
2023-02-18T12:02:03.090Z,87.00
2023-02-18T12:03:02.552Z,88.00
2023-02-18T12:04:02.525Z,89.00
2023-02-18T12:05:02.443Z,89.00
2023-02-18T12:06:02.396Z,89.00
2023-02-18T12:07:02.874Z,89.00
2023-02-18T12:08:02.472Z,90.00
2023-02-18T12:09:02.713Z,90.00
2023-02-18T12:10:02.340Z,90.00
2023-02-18T12:11:02.943Z,90.00
2023-02-18T12:12:02.856Z,90.00
2023-02-18T12:13:03.180Z,90.00
2023-02-18T12:14:02.667Z,90.00
2023-02-18T12:15:02.621Z,90.00
2023-02-18T12:16:03.172Z,91.00
2023-02-18T12:17:02.978Z,91.00
2023-02-18T12:18:01.890Z,91.00
2023-02-18T12:19:01.804Z,91.00
2023-02-18T12:20:02.063Z,91.00
2023-02-18T12:21:02.014Z,91.00
2023-02-18T12:22:01.954Z,91.00
2023-02-18T12:23:02.546Z,91.00
2023-02-18T12:24:02.510Z,91.00
2023-02-18T12:25:02.349Z,92.00
2023-02-18T12:26:02.827Z,92.00
2023-02-18T12:27:02.857Z,92.00
2023-02-18T12:28:02.613Z,92.00
2023-02-18T12:29:02.662Z,92.00
2023-02-18T12:30:02.681Z,92.00
2023-02-18T12:31:02.597Z,92.00
2023-02-18T12:32:02.595Z,92.00
2023-02-18T12:33:02.149Z,93.00
2023-02-18T12:34:02.076Z,93.00
2023-02-18T12:35:02.047Z,93.00
2023-02-18T12:36:02.033Z,93.00
2023-02-18T12:37:02.141Z,93.00
2023-02-18T12:38:02.926Z,93.00
2023-02-18T12:39:02.917Z,93.00
2023-02-18T12:40:02.727Z,93.00
2023-02-18T12:41:02.573Z,92.00
2023-02-18T12:42:02.560Z,93.00
2023-02-18T12:43:02.290Z,93.00
2023-02-18T12:44:02.276Z,93.00
2023-02-18T12:45:02.184Z,93.00
2023-02-18T12:46:02.036Z,93.00
2023-02-18T12:47:02.087Z,94.00
2023-02-18T12:48:02.739Z,94.00
2023-02-18T12:49:02.974Z,94.00
2023-02-18T12:50:02.499Z,94.00
2023-02-18T12:51:02.361Z,94.00
2023-02-18T12:52:02.357Z,94.00